Time;durP1;ratioP1;P1;durP2;ratioP2;P2;SDS_P1;SDS_P2;PMS_P1;PMS_P2;Temp;Humidity;BMP_temperature;BMP_pressure;BME280_temperature;BME280_humidity;BME280_pressure;Samples;Min_cycle;Max_cycle;Signal;HPM_P1;HPM_P2
2021/08/15 00:00:16;;;;;;;13.43;7.28;;;25.40;63.30;;;;;;4266191;27;20472;-67
2021/08/15 00:02:19;;;;;;;11.60;7.43;;;25.30;63.10;;;;;;4266106;27;20055;-70
2021/08/15 00:04:22;;;;;;;11.93;7.43;;;25.30;63.40;;;;;;4266289;27;20084;-71
2021/08/15 00:06:27;;;;;;;20.13;8.32;;;25.20;63.30;;;;;;4265939;27;20484;-71
2021/08/15 00:08:30;;;;;;;15.73;7.45;;;25.20;63.80;;;;;;4266736;27;20059;-69
2021/08/15 00:10:33;;;;;;;11.50;6.75;;;25.20;63.10;;;;;;4266350;27;20054;-71
2021/08/15 00:12:36;;;;;;;15.45;7.40;;;25.20;63.30;;;;;;4265885;27;20503;-73
2021/08/15 00:14:39;;;;;;;18.08;7.50;;;25.20;63.00;;;;;;4266275;27;20502;-72
2021/08/15 00:16:42;;;;;;;12.43;6.60;;;25.20;63.20;;;;;;4266134;27;20050;-72
2021/08/15 00:18:46;;;;;;;11.45;6.28;;;25.20;62.80;;;;;;4266341;27;20519;-67
2021/08/15 00:20:48;;;;;;;10.65;6.40;;;25.20;62.80;;;;;;4247429;27;20422;-69
2021/08/15 00:22:53;;;;;;;12.07;6.18;;;25.20;63.50;;;;;;4247658;27;20393;-70
2021/08/15 00:24:56;;;;;;;12.45;6.25;;;25.20;62.90;;;;;;4266193;27;20531;-71
2021/08/15 00:26:59;;;;;;;10.10;6.75;;;25.20;63.90;;;;;;4265689;27;20054;-70
2021/08/15 00:29:02;;;;;;;9.38;6.15;;;25.10;62.90;;;;;;4265925;27;20047;-71
2021/08/15 00:31:05;;;;;;;12.20;6.03;;;25.10;63.20;;;;;;4265950;27;20110;-69
2021/08/15 00:33:08;;;;;;;12.80;7.10;;;25.10;63.30;;;;;;4265811;27;20054;-71
2021/08/15 00:35:12;;;;;;;10.00;6.13;;;25.00;63.40;;;;;;4265864;27;20059;-69
2021/08/15 00:37:14;;;;;;;8.57;5.47;;;25.00;63.40;;;;;;4265779;27;20055;-74
2021/08/15 00:39:19;;;;;;;12.10;6.47;;;25.00;62.90;;;;;;4265498;27;20062;-69
2021/08/15 00:41:23;;;;;;;12.35;6.68;;;25.00;62.80;;;;;;4265291;27;20496;-70
2021/08/15 00:43:28;;;;;;;11.77;6.18;;;25.00;63.00;;;;;;4265549;27;20491;-70
2021/08/15 00:45:31;;;;;;;11.27;5.80;;;25.00;63.50;;;;;;4265724;27;20050;-70
2021/08/15 00:47:34;;;;;;;10.05;5.55;;;25.00;63.80;;;;;;4265510;27;20051;-71
2021/08/15 00:49:37;;;;;;;11.48;6.55;;;24.90;63.90;;;;;;4265344;27;20115;-73
2021/08/15 00:51:40;;;;;;;14.00;7.28;;;24.90;64.00;;;;;;4265483;27;20063;-68
2021/08/15 00:53:43;;;;;;;10.60;6.90;;;24.90;63.80;;;;;;4265171;27;20043;-68
2021/08/15 00:55:47;;;;;;;11.13;5.97;;;24.90;63.60;;;;;;4265509;27;20046;-72
2021/08/15 00:57:50;;;;;;;9.52;5.88;;;24.90;63.70;;;;;;4246737;27;20527;-69
2021/08/15 00:59:56;;;;;;;13.35;6.30;;;24.80;65.20;;;;;;4265163;27;20475;-71
2021/08/15 01:01:59;;;;;;;11.88;6.60;;;24.70;64.80;;;;;;4265282;27;20582;-69
2021/08/15 01:04:04;;;;;;;12.50;6.72;;;24.70;64.30;;;;;;4265024;27;20046;-74
2021/08/15 01:06:08;;;;;;;11.65;5.90;;;24.60;65.30;;;;;;4265221;27;20111;-71
2021/08/15 01:08:11;;;;;;;11.20;5.70;;;24.50;65.80;;;;;;4246898;27;20047;-72
2021/08/15 01:10:14;;;;;;;8.95;5.10;;;24.30;65.80;;;;;;4264923;27;20414;-70
2021/08/15 01:12:19;;;;;;;10.13;5.65;;;24.30;66.40;;;;;;4246683;27;20059;-70
2021/08/15 01:14:21;;;;;;;11.45;5.55;;;24.30;66.40;;;;;;4264720;27;20055;-74
2021/08/15 01:16:25;;;;;;;17.33;5.93;;;24.30;65.80;;;;;;4264748;27;20055;-69
2021/08/15 01:18:30;;;;;;;10.52;5.18;;;24.20;66.50;;;;;;4265028;27;20399;-70
2021/08/15 01:20:33;;;;;;;9.63;5.68;;;24.20;66.90;;;;;;4265204;27;20050;-75
2021/08/15 01:22:38;;;;;;;11.70;5.50;;;24.20;67.00;;;;;;4264877;27;20103;-71
2021/08/15 01:24:41;;;;;;;10.68;5.63;;;24.30;66.40;;;;;;4264896;27;20059;-74
2021/08/15 01:27:01;;;;;;;11.82;5.07;;;24.30;67.00;;;;;;4264731;27;20415;-69
2021/08/15 01:29:05;;;;;;;11.10;5.18;;;24.20;67.50;;;;;;4265083;27;20563;-67
2021/08/15 01:31:09;;;;;;;21.48;5.97;;;24.20;68.20;;;;;;4264668;27;20638;-74
2021/08/15 01:33:22;;;;;;;9.55;5.20;;;24.10;67.80;;;;;;4265013;27;20135;-68
2021/08/15 01:35:25;;;;;;;10.02;5.07;;;24.10;67.70;;;;;;4264745;27;20107;-67
2021/08/15 01:37:29;;;;;;;12.82;5.40;;;24.10;68.10;;;;;;4264725;27;20159;-70
2021/08/15 01:39:31;;;;;;;12.07;5.30;;;24.10;68.80;;;;;;4264825;27;20050;-73
2021/08/15 01:41:34;;;;;;;10.20;5.03;;;24.10;69.90;;;;;;4264715;27;20050;-68
2021/08/15 01:43:57;;;;;;;13.52;5.38;;;24.00;68.80;;;;;;4264468;27;20452;-69
2021/08/15 01:46:01;;;;;;;12.40;5.25;;;24.00;68.60;;;;;;4264595;27;20162;-70
2021/08/15 01:48:05;;;;;;;9.30;5.00;;;24.00;70.30;;;;;;4264796;27;20051;-68
2021/08/15 01:50:08;;;;;;;8.90;4.60;;;23.90;70.40;;;;;;4264976;27;20107;-69
2021/08/15 01:52:11;;;;;;;10.68;5.18;;;23.90;70.90;;;;;;4264958;27;20051;-68
2021/08/15 01:54:14;;;;;;;10.52;4.95;;;23.80;70.80;;;;;;4264431;27;20047;-72
2021/08/15 01:56:18;;;;;;;12.63;5.20;;;23.90;70.10;;;;;;4264487;27;20467;-69
2021/08/15 01:58:21;;;;;;;20.45;5.32;;;24.00;70.00;;;;;;4264141;27;20418;-67
2021/08/15 02:00:24;;;;;;;15.40;5.68;;;23.90;70.80;;;;;;4245816;27;20077;-70
2021/08/15 02:02:29;;;;;;;15.05;5.43;;;23.80;70.60;;;;;;4264375;27;20062;-67
2021/08/15 02:04:32;;;;;;;11.82;5.07;;;23.80;71.50;;;;;;4264013;27;20107;-72
2021/08/15 02:06:35;;;;;;;13.80;5.47;;;23.80;71.80;;;;;;4263986;27;20099;-72
2021/08/15 02:08:38;;;;;;;16.83;5.93;;;23.70;71.80;;;;;;4245673;27;20100;-70
2021/08/15 02:10:41;;;;;;;13.20;5.07;;;23.70;72.00;;;;;;4264304;27;20047;-71
2021/08/15 02:12:44;;;;;;;13.30;4.93;;;23.70;72.90;;;;;;4245773;27;20415;-68
2021/08/15 02:14:47;;;;;;;10.63;5.10;;;23.70;72.30;;;;;;4264230;27;20396;-73
2021/08/15 02:16:50;;;;;;;17.10;5.57;;;23.70;72.10;;;;;;4264011;27;20055;-72
2021/08/15 02:18:54;;;;;;;15.35;5.38;;;23.70;72.00;;;;;;4263780;27;20054;-71
2021/08/15 02:20:57;;;;;;;11.18;5.47;;;23.70;71.20;;;;;;4263680;27;20100;-68
2021/08/15 02:23:00;;;;;;;9.20;4.95;;;23.80;72.30;;;;;;4263735;27;20641;-73
2021/08/15 02:25:05;;;;;;;13.85;5.72;;;23.80;71.10;;;;;;4263752;27;20456;-68
2021/08/15 02:27:08;;;;;;;12.95;5.78;;;23.60;72.70;;;;;;4263809;27;20051;-69
2021/08/15 02:29:11;;;;;;;13.23;5.60;;;23.60;73.20;;;;;;4263876;27;20050;-73
2021/08/15 02:31:14;;;;;;;13.07;5.45;;;23.50;73.30;;;;;;4264015;27;20047;-72
2021/08/15 02:33:17;;;;;;;14.63;4.60;;;23.50;72.80;;;;;;4263793;27;20084;-67
2021/08/15 02:35:22;;;;;;;12.13;5.07;;;23.60;73.10;;;;;;4263768;27;20054;-67
2021/08/15 02:37:25;;;;;;;11.80;5.10;;;23.50;72.70;;;;;;4263474;27;20494;-68
2021/08/15 02:39:27;;;;;;;11.77;5.47;;;23.50;72.90;;;;;;4263413;27;20551;-67
2021/08/15 02:41:30;;;;;;;18.77;5.53;;;23.60;72.70;;;;;;4263791;27;20099;-69
2021/08/15 02:43:33;;;;;;;8.88;5.28;;;23.60;72.30;;;;;;4263326;27;20119;-71
2021/08/15 02:45:36;;;;;;;13.18;5.30;;;23.60;72.00;;;;;;4263300;27;20083;-68
2021/08/15 02:47:39;;;;;;;14.23;4.53;;;23.60;72.10;;;;;;4263378;27;20051;-68
2021/08/15 02:49:42;;;;;;;14.43;5.35;;;23.60;71.60;;;;;;4263309;27;20051;-68
2021/08/15 02:51:47;;;;;;;11.63;5.45;;;23.60;72.00;;;;;;4263456;27;20051;-72
2021/08/15 02:53:50;;;;;;;10.88;5.35;;;23.60;73.30;;;;;;4263238;27;20051;-72
2021/08/15 02:55:53;;;;;;;15.60;5.45;;;23.50;72.60;;;;;;4263201;27;20051;-70
2021/08/15 02:57:56;;;;;;;16.58;6.10;;;23.50;72.20;;;;;;4263273;27;20080;-69
2021/08/15 02:59:59;;;;;;;13.45;5.38;;;23.60;72.00;;;;;;4263118;27;20058;-67
2021/08/15 03:02:02;;;;;;;10.88;5.03;;;23.60;72.20;;;;;;4263330;27;20621;-69
2021/08/15 03:04:06;;;;;;;13.73;5.82;;;23.60;71.50;;;;;;4263172;27;20490;-71
2021/08/15 03:06:09;;;;;;;17.20;6.13;;;23.50;72.90;;;;;;4263158;27;20046;-69
2021/08/15 03:08:13;;;;;;;14.23;5.28;;;23.50;72.40;;;;;;4263388;27;20555;-72
2021/08/15 03:10:16;;;;;;;13.75;5.15;;;23.50;72.40;;;;;;4262135;27;20051;-69
2021/08/15 03:12:19;;;;;;;16.63;5.28;;;23.50;72.30;;;;;;4263325;27;20050;-75
2021/08/15 03:14:22;;;;;;;12.10;5.20;;;23.40;73.80;;;;;;4263204;27;20055;-73
2021/08/15 03:16:26;;;;;;;21.08;5.72;;;23.40;72.70;;;;;;4263254;27;20111;-70
2021/08/15 03:18:30;;;;;;;13.13;6.15;;;23.30;74.70;;;;;;4263079;27;20188;-70
2021/08/15 03:20:33;;;;;;;14.10;5.15;;;23.30;73.60;;;;;;4263221;27;20059;-68
2021/08/15 03:22:36;;;;;;;9.18;5.55;;;23.30;72.30;;;;;;4262890;27;20114;-72
2021/08/15 03:24:40;;;;;;;11.57;5.78;;;23.40;72.80;;;;;;4263299;27;20107;-70
2021/08/15 03:26:45;;;;;;;11.48;5.78;;;23.30;72.70;;;;;;4263123;27;20058;-68
2021/08/15 03:28:47;;;;;;;12.15;4.65;;;23.30;74.60;;;;;;4263011;27;20055;-71
2021/08/15 03:30:50;;;;;;;18.90;6.13;;;23.30;72.30;;;;;;4263039;27;20409;-71
2021/08/15 03:32:53;;;;;;;15.90;5.60;;;23.30;72.60;;;;;;4263310;27;20058;-70
2021/08/15 03:34:56;;;;;;;15.68;5.57;;;23.30;72.40;;;;;;4262776;27;20059;-74
2021/08/15 03:36:59;;;;;;;24.80;6.63;;;23.30;73.40;;;;;;4262763;27;20111;-72
2021/08/15 03:39:03;;;;;;;14.52;5.70;;;23.20;74.90;;;;;;4263050;27;20111;-70
2021/08/15 03:41:07;;;;;;;14.43;6.32;;;23.10;75.00;;;;;;4263092;27;20111;-72
2021/08/15 03:43:10;;;;;;;17.30;7.03;;;23.10;74.80;;;;;;4263060;27;20062;-72
2021/08/15 03:45:13;;;;;;;15.35;6.00;;;23.00;75.30;;;;;;4263029;27;20407;-70
2021/08/15 03:47:16;;;;;;;17.60;5.95;;;22.90;75.90;;;;;;4262519;27;20050;-71
2021/08/15 03:49:19;;;;;;;16.98;5.53;;;22.90;75.60;;;;;;4262635;27;20423;-73
2021/08/15 03:51:22;;;;;;;20.25;6.90;;;23.00;75.70;;;;;;4262644;27;20055;-71
2021/08/15 03:53:25;;;;;;;11.27;5.78;;;23.00;77.40;;;;;;4262549;27;20522;-72
2021/08/15 03:55:28;;;;;;;12.18;6.40;;;23.00;75.00;;;;;;4263132;27;20123;-70
2021/08/15 03:57:32;;;;;;;14.38;5.97;;;23.00;75.70;;;;;;4262789;27;20050;-67
2021/08/15 03:59:35;;;;;;;13.00;6.43;;;22.90;76.50;;;;;;4262844;27;20128;-71
2021/08/15 04:01:38;;;;;;;12.98;5.72;;;22.90;77.40;;;;;;4262705;27;20103;-71
2021/08/15 04:03:42;;;;;;;14.85;6.00;;;22.80;76.20;;;;;;4244138;27;20051;-68
2021/08/15 04:05:46;;;;;;;11.32;5.80;;;22.70;77.20;;;;;;4262840;27;20099;-69
2021/08/15 04:07:49;;;;;;;12.52;5.45;;;22.80;77.10;;;;;;4262889;27;20118;-70
2021/08/15 04:09:52;;;;;;;14.15;6.60;;;22.80;76.60;;;;;;4262688;27;20055;-71
2021/08/15 04:11:55;;;;;;;14.15;5.40;;;22.80;76.70;;;;;;4262757;27;20080;-72
2021/08/15 04:14:00;;;;;;;15.23;6.10;;;22.80;76.80;;;;;;4262498;27;20460;-68
2021/08/15 04:16:03;;;;;;;14.80;5.82;;;22.90;76.80;;;;;;4262579;27;20050;-71
2021/08/15 04:18:06;;;;;;;19.98;5.90;;;22.80;77.10;;;;;;4262655;27;20111;-73
2021/08/15 04:20:10;;;;;;;16.85;6.03;;;22.80;78.10;;;;;;4262805;27;20055;-70
2021/08/15 04:22:13;;;;;;;14.73;6.22;;;22.80;77.90;;;;;;4265109;27;20054;-68
2021/08/15 04:24:16;;;;;;;16.20;5.78;;;22.70;78.70;;;;;;4265735;27;20700;-73
2021/08/15 04:26:19;;;;;;;13.10;5.88;;;22.60;79.70;;;;;;4265770;27;20488;-74
2021/08/15 04:28:23;;;;;;;18.52;6.20;;;22.50;80.20;;;;;;4266051;27;20088;-70
2021/08/15 04:30:27;;;;;;;12.52;5.63;;;22.60;79.70;;;;;;4265984;27;20053;-69
2021/08/15 04:32:30;;;;;;;15.27;6.43;;;22.60;79.50;;;;;;4265719;27;20051;-70
2021/08/15 04:34:33;;;;;;;19.13;6.78;;;22.50;80.10;;;;;;4265817;27;20054;-69
2021/08/15 04:36:36;;;;;;;17.10;6.57;;;22.50;81.40;;;;;;4265753;27;20104;-72
2021/08/15 04:38:39;;;;;;;20.65;6.90;;;22.40;80.90;;;;;;4265989;27;20046;-72
2021/08/15 04:40:42;;;;;;;17.58;6.18;;;22.50;80.80;;;;;;4265948;27;20074;-72
2021/08/15 04:42:45;;;;;;;15.48;6.00;;;22.50;79.70;;;;;;4265623;27;20055;-72
2021/08/15 04:44:48;;;;;;;14.65;5.97;;;22.50;79.20;;;;;;4265718;27;20108;-70
2021/08/15 04:46:53;;;;;;;14.52;6.40;;;22.50;81.80;;;;;;4265794;27;20055;-70
2021/08/15 04:48:56;;;;;;;15.25;5.82;;;22.40;80.30;;;;;;4265844;27;20107;-70
2021/08/15 04:50:59;;;;;;;12.85;5.93;;;22.40;79.90;;;;;;4265688;27;20111;-72
2021/08/15 04:53:01;;;;;;;13.10;5.90;;;22.50;81.10;;;;;;4265169;27;20071;-68
2021/08/15 04:55:06;;;;;;;14.93;6.50;;;22.40;81.20;;;;;;4265184;27;20055;-69
2021/08/15 04:57:09;;;;;;;15.32;5.93;;;22.40;81.20;;;;;;4265267;27;20579;-70
2021/08/15 04:59:11;;;;;;;14.55;6.25;;;22.40;81.40;;;;;;4265445;27;20055;-68
2021/08/15 05:01:15;;;;;;;18.30;5.78;;;22.40;80.90;;;;;;4265614;27;20472;-70
2021/08/15 05:03:19;;;;;;;12.50;5.75;;;22.40;81.60;;;;;;4265278;27;20126;-67
2021/08/15 05:05:22;;;;;;;24.92;7.75;;;22.30;80.70;;;;;;4264956;27;20083;-69
2021/08/15 05:07:25;;;;;;;22.50;6.53;;;22.40;81.40;;;;;;4265310;27;20051;-71
2021/08/15 05:09:29;;;;;;;23.60;6.45;;;22.30;82.10;;;;;;4265074;27;20054;-73
2021/08/15 05:11:32;;;;;;;15.90;5.97;;;22.30;83.00;;;;;;4265004;27;20119;-70
2021/08/15 05:13:35;;;;;;;10.60;5.60;;;22.30;82.70;;;;;;4265072;27;20115;-72
2021/08/15 05:15:38;;;;;;;13.15;6.15;;;22.30;81.80;;;;;;4264984;27;20058;-69
2021/08/15 05:17:41;;;;;;;14.70;7.20;;;22.40;82.60;;;;;;4264936;27;20055;-73
2021/08/15 05:19:45;;;;;;;20.20;6.38;;;22.40;81.50;;;;;;4264815;27;20498;-71
2021/08/15 05:21:48;;;;;;;14.43;5.97;;;22.40;80.90;;;;;;4265008;27;20146;-71
2021/08/15 05:23:51;;;;;;;12.00;5.95;;;22.40;82.40;;;;;;4265079;27;20050;-69
2021/08/15 05:25:54;;;;;;;16.50;5.82;;;22.30;82.90;;;;;;4246484;27;20055;-73
2021/08/15 05:27:57;;;;;;;21.88;7.28;;;22.30;81.80;;;;;;4264987;27;20062;-71
2021/08/15 05:30:00;;;;;;;14.80;6.10;;;22.30;82.60;;;;;;4265007;27;20084;-68
2021/08/15 05:32:04;;;;;;;14.52;6.32;;;22.40;82.10;;;;;;4264665;27;20444;-70
2021/08/15 05:34:07;;;;;;;23.63;6.35;;;22.50;81.00;;;;;;4264099;27;20111;-71
2021/08/15 05:36:11;;;;;;;21.40;6.53;;;22.40;82.40;;;;;;4264515;27;20058;-69
2021/08/15 05:38:14;;;;;;;20.77;6.90;;;22.50;81.70;;;;;;4246267;27;20052;-72
2021/08/15 05:40:17;;;;;;;14.27;6.32;;;22.40;83.30;;;;;;4264611;27;20488;-71
2021/08/15 05:42:20;;;;;;;19.17;6.80;;;22.30;83.20;;;;;;4264464;27;20065;-73
2021/08/15 05:44:23;;;;;;;10.60;5.03;;;22.40;83.80;;;;;;4264498;27;20091;-71
2021/08/15 05:46:26;;;;;;;16.50;6.68;;;22.50;83.40;;;;;;4264313;27;20043;-72
2021/08/15 05:48:30;;;;;;;23.85;6.82;;;22.50;82.70;;;;;;4264645;27;20051;-72
2021/08/15 05:50:33;;;;;;;16.75;7.55;;;22.50;82.30;;;;;;4264219;27;20047;-69
2021/08/15 05:52:38;;;;;;;16.98;6.97;;;22.50;85.60;;;;;;4245920;27;20059;-69
2021/08/15 05:54:41;;;;;;;16.80;6.60;;;22.50;83.40;;;;;;4264227;27;20050;-70
2021/08/15 05:56:44;;;;;;;12.73;6.53;;;22.50;83.50;;;;;;4264337;27;20103;-71
2021/08/15 05:58:46;;;;;;;14.38;6.75;;;22.50;84.90;;;;;;4264274;27;20054;-71
2021/08/15 06:00:50;;;;;;;12.43;6.63;;;22.50;84.60;;;;;;4264411;27;20115;-72
2021/08/15 06:02:53;;;;;;;12.43;6.65;;;22.50;83.70;;;;;;4264267;27;20111;-69
2021/08/15 06:04:57;;;;;;;17.33;6.68;;;22.60;82.80;;;;;;4246117;27;20067;-68
2021/08/15 06:06:59;;;;;;;11.50;5.53;;;22.60;84.20;;;;;;4263959;27;20054;-72
2021/08/15 06:09:04;;;;;;;20.27;6.85;;;22.70;83.40;;;;;;4264341;27;20077;-72
2021/08/15 06:11:07;;;;;;;12.82;7.20;;;22.60;83.70;;;;;;4264132;27;20059;-68
2021/08/15 06:13:10;;;;;;;21.15;7.18;;;22.60;83.10;;;;;;4264099;27;20055;-71
2021/08/15 06:15:13;;;;;;;13.90;6.78;;;22.60;84.00;;;;;;4263869;27;20058;-67
2021/08/15 06:17:16;;;;;;;16.38;7.10;;;22.60;84.70;;;;;;4264204;27;20088;-71
2021/08/15 06:19:19;;;;;;;17.45;5.90;;;22.60;83.20;;;;;;4263898;27;20054;-68
2021/08/15 06:21:23;;;;;;;18.17;6.32;;;22.70;83.80;;;;;;4264098;27;20111;-71
2021/08/15 06:23:26;;;;;;;12.77;5.47;;;22.60;83.10;;;;;;4263964;27;20456;-67
2021/08/15 06:25:31;;;;;;;14.07;6.15;;;22.60;83.50;;;;;;4263150;27;20058;-72
2021/08/15 06:27:35;;;;;;;15.82;6.47;;;22.60;83.50;;;;;;4263379;27;20574;-70
2021/08/15 06:29:38;;;;;;;14.13;6.07;;;22.70;82.80;;;;;;4263688;27;20103;-68
2021/08/15 06:31:42;;;;;;;11.90;6.22;;;22.70;82.60;;;;;;4263687;27;20046;-68
2021/08/15 06:33:45;;;;;;;15.68;6.32;;;22.80;81.90;;;;;;4263672;27;20070;-72
2021/08/15 06:35:49;;;;;;;19.42;6.10;;;22.80;82.70;;;;;;4263707;27;20055;-68
2021/08/15 06:37:54;;;;;;;19.60;5.57;;;22.90;82.00;;;;;;4263759;27;20147;-66
2021/08/15 06:39:57;;;;;;;15.18;6.00;;;22.80;82.50;;;;;;4263656;27;20050;-71
2021/08/15 06:42:01;;;;;;;12.77;5.75;;;22.90;81.70;;;;;;4263924;27;20054;-73
2021/08/15 06:44:05;;;;;;;12.75;6.07;;;23.00;81.40;;;;;;4245075;27;20119;-68
2021/08/15 06:46:08;;;;;;;28.08;6.15;;;22.90;81.70;;;;;;4263497;27;20050;-71
2021/08/15 06:48:11;;;;;;;13.85;5.68;;;22.90;82.30;;;;;;4263611;27;20096;-70
2021/08/15 06:50:14;;;;;;;14.90;5.38;;;22.90;82.00;;;;;;4263643;27;20185;-69
2021/08/15 06:52:17;;;;;;;20.20;6.03;;;22.90;82.90;;;;;;4263352;27;20407;-67
2021/08/15 06:54:20;;;;;;;19.23;6.10;;;22.80;83.60;;;;;;4263246;27;20115;-67
2021/08/15 06:56:23;;;;;;;19.88;5.57;;;22.90;82.90;;;;;;4263227;27;20054;-70
2021/08/15 06:58:28;;;;;;;12.63;5.63;;;23.00;82.30;;;;;;4263616;27;20059;-73
2021/08/15 07:00:31;;;;;;;14.02;5.20;;;23.00;82.10;;;;;;4263390;27;20051;-69
2021/08/15 07:02:36;;;;;;;15.93;5.80;;;23.10;81.70;;;;;;4263250;27;20050;-68
2021/08/15 07:04:39;;;;;;;12.57;5.40;;;23.20;82.00;;;;;;4244793;27;20055;-72
2021/08/15 07:06:42;;;;;;;18.42;6.43;;;23.10;82.00;;;;;;4263086;27;20058;-66
2021/08/15 07:08:45;;;;;;;18.30;6.25;;;23.10;82.00;;;;;;4263203;27;20110;-72
2021/08/15 07:10:48;;;;;;;14.63;5.93;;;23.20;81.40;;;;;;4263327;27;20569;-67
2021/08/15 07:12:55;;;;;;;13.90;5.45;;;23.30;80.70;;;;;;4263166;27;20107;-74
2021/08/15 07:15:01;;;;;;;31.55;6.30;;;23.40;81.20;;;;;;4263099;27;20173;-71
2021/08/15 07:17:04;;;;;;;11.18;5.50;;;23.40;80.60;;;;;;4262831;27;20055;-67
2021/08/15 07:19:07;;;;;;;15.30;5.55;;;23.50;80.10;;;;;;4263122;27;20498;-72
2021/08/15 07:21:10;;;;;;;16.30;5.68;;;23.60;79.50;;;;;;4263320;27;20578;-68
2021/08/15 07:23:13;;;;;;;18.23;6.30;;;23.70;79.80;;;;;;4263090;27;20387;-70
2021/08/15 07:25:16;;;;;;;15.23;5.93;;;23.50;80.50;;;;;;4263134;27;20059;-73
2021/08/15 07:27:19;;;;;;;19.85;5.90;;;23.50;80.20;;;;;;4264008;27;20050;-72
2021/08/15 07:29:23;;;;;;;11.40;5.97;;;23.70;80.00;;;;;;4263306;27;20119;-67
2021/08/15 07:31:27;;;;;;;14.85;5.53;;;23.80;79.30;;;;;;4263104;27;20046;-69
2021/08/15 07:33:30;;;;;;;10.77;5.35;;;23.90;79.00;;;;;;4263308;27;20127;-71
2021/08/15 07:35:35;;;;;;;17.40;5.40;;;23.90;78.80;;;;;;4263278;27;20100;-71
2021/08/15 07:37:38;;;;;;;10.88;4.47;;;24.00;78.60;;;;;;4262897;27;20571;-72
2021/08/15 07:39:41;;;;;;;12.60;5.38;;;24.20;78.50;;;;;;4263086;27;20483;-70
2021/08/15 07:41:44;;;;;;;16.15;5.07;;;24.30;78.10;;;;;;4262640;27;20539;-67
2021/08/15 07:43:47;;;;;;;12.30;5.00;;;24.40;77.30;;;;;;4262820;27;20392;-70
2021/08/15 07:45:51;;;;;;;14.65;5.40;;;24.50;77.00;;;;;;4262772;27;20055;-68
2021/08/15 07:47:55;;;;;;;17.83;5.35;;;24.60;76.70;;;;;;4262770;27;20480;-70
2021/08/15 07:49:59;;;;;;;;;;;24.70;76.70;;;;;;4263577;27;20047;-69
2021/08/15 07:52:02;;;;;;;16.13;6.03;;;24.70;76.30;;;;;;4263026;27;19944;-70
2021/08/15 07:54:05;;;;;;;18.13;5.90;;;24.80;76.30;;;;;;4262788;27;20080;-72
2021/08/15 07:56:08;;;;;;;13.52;5.50;;;24.90;76.10;;;;;;4263678;27;20099;-67
2021/08/15 07:58:12;;;;;;;16.38;5.85;;;24.90;75.90;;;;;;4265961;27;20551;-72
2021/08/15 08:00:15;;;;;;;11.93;5.15;;;25.00;76.10;;;;;;4266264;27;20135;-71
2021/08/15 08:02:18;;;;;;;12.63;4.97;;;25.10;75.70;;;;;;4266048;27;20504;-73
2021/08/15 08:04:23;;;;;;;15.77;6.05;;;25.10;75.60;;;;;;4266669;27;20205;-73
2021/08/15 08:06:25;;;;;;;13.32;5.05;;;25.30;75.80;;;;;;4266162;27;20115;-69
2021/08/15 08:08:28;;;;;;;13.15;6.10;;;25.40;75.40;;;;;;4265791;27;20591;-73
2021/08/15 08:10:31;;;;;;;13.15;5.53;;;25.50;74.60;;;;;;4265878;27;20150;-74
2021/08/15 08:12:34;;;;;;;13.60;5.60;;;25.50;74.70;;;;;;4266299;27;20088;-68
2021/08/15 08:14:37;;;;;;;10.60;5.20;;;25.50;74.50;;;;;;4265785;27;20083;-71
2021/08/15 08:16:40;;;;;;;15.50;4.95;;;25.60;74.70;;;;;;4266128;27;20127;-72
2021/08/15 08:18:44;;;;;;;13.70;5.40;;;25.70;74.70;;;;;;4266090;27;20046;-68
2021/08/15 08:20:48;;;;;;;14.18;5.82;;;25.70;74.40;;;;;;4265849;27;20051;-69
2021/08/15 08:22:51;;;;;;;14.88;5.40;;;25.80;74.20;;;;;;4265737;27;20047;-72
2021/08/15 08:24:55;;;;;;;9.88;4.57;;;25.90;74.50;;;;;;4265954;27;20131;-69
2021/08/15 08:26:58;;;;;;;13.10;5.68;;;26.00;73.80;;;;;;4230518;27;20121;-68
2021/08/15 08:29:02;;;;;;;14.52;5.70;;;26.10;73.90;;;;;;4265943;27;20050;-72
2021/08/15 08:31:05;;;;;;;18.98;6.05;;;26.30;74.00;;;;;;4265922;27;20055;-68
2021/08/15 08:33:08;;;;;;;17.02;5.65;;;26.40;74.40;;;;;;4265903;27;20051;-69
2021/08/15 08:35:11;;;;;;;10.38;5.45;;;26.50;73.90;;;;;;4265330;27;20076;-70
2021/08/15 08:37:18;;;;;;;14.43;6.20;;;26.60;73.40;;;;;;4265392;27;20460;-69
2021/08/15 08:39:21;;;;;;;14.40;5.85;;;26.70;73.50;;;;;;4265563;27;20564;-69
2021/08/15 08:41:24;;;;;;;13.77;4.82;;;26.80;72.90;;;;;;4265724;27;20107;-73
2021/08/15 08:43:27;;;;;;;14.07;5.63;;;26.90;71.90;;;;;;4265609;27;20114;-74
2021/08/15 08:45:36;;;;;;;12.55;5.80;;;27.00;72.20;;;;;;4265453;27;20051;-68
2021/08/15 08:47:40;;;;;;;15.93;6.10;;;27.00;72.40;;;;;;4265465;27;20459;-69
2021/08/15 08:49:44;;;;;;;10.80;5.50;;;27.00;71.60;;;;;;4247521;27;20058;-70
2021/08/15 08:51:47;;;;;;;14.23;5.68;;;27.10;72.20;;;;;;4265503;27;20075;-71
2021/08/15 08:54:06;;;;;;;16.23;6.00;;;27.10;71.30;;;;;;4265385;27;20055;-68
2021/08/15 08:56:09;;;;;;;17.58;5.47;;;27.20;70.40;;;;;;4265273;27;20502;-69
2021/08/15 08:58:12;;;;;;;13.52;5.90;;;27.20;70.90;;;;;;4265406;27;20074;-73
2021/08/15 09:00:16;;;;;;;19.20;6.00;;;27.20;71.60;;;;;;4264929;27;20099;-71
2021/08/15 09:02:20;;;;;;;19.50;6.22;;;27.30;71.90;;;;;;4265256;27;20083;-72
2021/08/15 09:04:23;;;;;;;14.02;5.93;;;27.50;72.50;;;;;;4265552;27;20555;-70
2021/08/15 09:06:28;;;;;;;13.82;5.95;;;27.60;72.00;;;;;;4265370;27;20089;-67
2021/08/15 09:08:35;;;;;;;18.65;6.10;;;27.70;71.20;;;;;;4246251;27;20055;-72
2021/08/15 09:10:39;;;;;;;11.30;6.30;;;27.80;71.50;;;;;;4266055;27;20054;-68
2021/08/15 09:12:44;;;;;;;14.15;6.18;;;27.70;71.00;;;;;;4265622;27;20534;-72
2021/08/15 09:15:04;;;;;;;16.92;6.13;;;27.90;70.10;;;;;;4265252;27;20054;-66
2021/08/15 09:17:08;;;;;;;14.35;6.82;;;28.00;70.80;;;;;;4265431;27;20054;-69
2021/08/15 09:19:23;;;;;;;12.00;6.07;;;27.90;69.50;;;;;;4265195;27;20054;-72
2021/08/15 09:21:29;;;;;;;19.15;6.85;;;28.10;70.80;;;;;;4265052;27;20490;-68
2021/08/15 09:23:36;;;;;;;14.07;6.32;;;28.20;70.70;;;;;;4264706;27;20055;-66
2021/08/15 09:25:43;;;;;;;12.48;6.43;;;28.30;71.10;;;;;;4264653;27;20076;-67
2021/08/15 09:27:47;;;;;;;13.38;6.22;;;28.40;69.90;;;;;;4264409;27;20510;-67
2021/08/15 09:30:07;;;;;;;15.80;7.10;;;28.50;69.70;;;;;;4246551;27;20055;-67
2021/08/15 09:32:13;;;;;;;17.70;6.32;;;28.50;69.50;;;;;;4258893;27;20515;-66
2021/08/15 09:34:24;;;;;;;12.98;6.32;;;28.60;69.00;;;;;;4229254;28;20051;-68
2021/08/15 09:36:30;;;;;;;13.15;6.40;;;28.70;70.40;;;;;;4247606;27;20438;-70
2021/08/15 09:38:42;;;;;;;14.18;5.95;;;28.80;70.40;;;;;;4229472;28;20047;-69
2021/08/15 09:40:47;;;;;;;11.25;6.15;;;28.90;70.30;;;;;;4247676;27;20656;-72
2021/08/15 09:42:51;;;;;;;13.85;6.25;;;29.00;70.30;;;;;;4247215;27;20469;-68
2021/08/15 09:44:54;;;;;;;16.23;6.40;;;29.10;69.40;;;;;;4229004;28;20051;-69
2021/08/15 09:47:05;;;;;;;19.52;6.90;;;29.20;69.00;;;;;;4247270;27;20108;-69
2021/08/15 09:49:13;;;;;;;13.30;6.55;;;29.20;68.70;;;;;;4247185;27;20125;-71
2021/08/15 09:51:17;;;;;;;13.38;6.70;;;29.30;68.80;;;;;;4247136;27;20120;-71
2021/08/15 09:53:24;;;;;;;15.40;6.55;;;29.30;69.20;;;;;;4247418;27;20529;-67
2021/08/15 09:55:46;;;;;;;13.57;7.10;;;29.30;69.40;;;;;;4247413;27;20051;-68
2021/08/15 09:57:49;;;;;;;11.88;6.18;;;29.40;70.10;;;;;;4229547;27;20051;-66
2021/08/15 09:59:52;;;;;;;15.40;7.15;;;29.40;69.70;;;;;;4247805;27;20051;-70
2021/08/15 10:01:55;;;;;;;11.27;6.30;;;29.50;69.50;;;;;;4247508;27;20047;-67
2021/08/15 10:03:59;;;;;;;14.95;7.38;;;29.50;69.00;;;;;;4247343;27;20047;-68
2021/08/15 10:06:06;;;;;;;15.70;6.65;;;29.50;69.10;;;;;;4246742;27;20127;-68
2021/08/15 10:08:09;;;;;;;15.73;6.57;;;29.60;69.80;;;;;;4246761;27;20116;-66
2021/08/15 10:10:13;;;;;;;13.52;6.60;;;29.70;70.00;;;;;;4246956;27;20051;-67
2021/08/15 10:12:17;;;;;;;15.23;6.35;;;29.80;69.50;;;;;;4247050;27;20070;-70
2021/08/15 10:14:20;;;;;;;11.90;6.72;;;29.80;69.20;;;;;;4247643;27;20047;-68
2021/08/15 10:16:29;;;;;;;12.63;6.82;;;29.90;69.40;;;;;;4246659;27;20400;-67
2021/08/15 10:18:37;;;;;;;14.90;6.82;;;30.00;68.80;;;;;;4246853;27;20461;-67
2021/08/15 10:20:40;;;;;;;16.00;6.07;;;30.00;68.80;;;;;;4246523;27;20047;-69
2021/08/15 10:22:43;;;;;;;13.55;6.70;;;30.00;68.60;;;;;;4247222;27;20441;-68
2021/08/15 10:24:47;;;;;;;13.25;6.53;;;30.10;68.30;;;;;;4246821;27;20071;-71
2021/08/15 10:26:51;;;;;;;11.95;6.85;;;30.20;68.70;;;;;;4246783;27;20115;-71
2021/08/15 10:28:56;;;;;;;9.90;5.97;;;30.20;68.70;;;;;;4246699;27;20059;-68
2021/08/15 10:30:58;;;;;;;;;;;30.20;68.10;;;;;;4247103;27;20055;-67
2021/08/15 10:33:25;;;;;;;11.50;5.85;;;30.10;68.20;;;;;;4246723;27;19919;-71
2021/08/15 10:35:29;;;;;;;14.93;6.03;;;30.10;68.40;;;;;;4246188;27;20155;-68
2021/08/15 10:37:33;;;;;;;10.70;5.75;;;30.30;67.70;;;;;;4246370;27;20080;-68